UAAA Airport Information

Runway Information
Runway 05 Length 14427 ft width 147 ft
Elevation 2224 ft Threshold 0 ft Heading 56
Runway 23 Length 14427 ft Width 147 ft
Elevation 2234 ft Threshold 0 ft Heading 236
Airport Frequencies
Type APP Name APP Frequency 131.6 MHZ
Type ATIS Name ATIS Frequency 129.8 MHZ
Type GCA Name RADAR Frequency 120.8 MHZ
Type GND Name GND Frequency 121.7 MHZ
Type TWR Name TWR Frequency 119.4 MHZ
Airport Navaids
Type NDB Name Almaty Frequency 443 KHZ
Type VOR-DME Name Almaty Frequency 112300 KHZ
Type NDB Name Almaty Frequency 415 KHZ
Airport Weather Information & NOTAM
ADDS - METARS form results

(1251 UTC 26 October 2020)
Data provider http://aviationweather.gov/metar/data/
 
METAR text: UAAA 261246Z VRB01MPS 2700 FU SCT200 09/M01 Q1018 R88/65D TEMPO 1500 FU
Conditions at: UAAA (ALMA-ATA , KZ) observed 1246 UTC 26 October 2020
Temperature: 9.0°C (48°F)
Dewpoint: -1.0°C (30°F) [RH = 49%]
Pressure (altimeter): 30.06 inches Hg (1018.0 mb)
Winds: variable direction winds at 2 MPH (2 knots; 1.0 m/s)
Visibility: 1.68 miles (2.70 km)
Ceiling: at least 12,000 feet AGL
Clouds: scattered clouds at 20000 feet AGL
Weather: FU  (smoke)

METAR text: UAAA 261230Z 00000MPS 5000 FU SCT200 10/M01 Q1018 R88/65D NOSIG
Conditions at: UAAA (ALMA-ATA , KZ) observed 1230 UTC 26 October 2020
Temperature: 10.0°C (50°F)
Dewpoint: -1.0°C (30°F) [RH = 46%]
Pressure (altimeter): 30.06 inches Hg (1018.0 mb)
Winds: calm
Visibility: 3 miles ( 5 km)
Ceiling: at least 12,000 feet AGL
Clouds: scattered clouds at 20000 feet AGL
Weather: FU  (smoke)

METAR text: UAAA 261200Z 04001MPS 9999 FEW200 11/M02 Q1018 R88/65D NOSIG
Conditions at: UAAA (ALMA-ATA , KZ) observed 1200 UTC 26 October 2020
Temperature: 11.0°C (52°F)
Dewpoint: -2.0°C (28°F) [RH = 40%]
Pressure (altimeter): 30.06 inches Hg (1018.0 mb)
Winds: from the NE (40 degrees) at 2 MPH (2 knots; 1.0 m/s)
Visibility: 6 or more miles (10+ km)
Ceiling: at least 12,000 feet AGL
Clouds: few clouds at 20000 feet AGL
Weather: no significant weather observed at this time

Forecast for: UAAA (ALMA-ATA , KZ)
Text: TAF UAAA 261100Z 2612/2712 16003G08MPS 3100 BR FU SCT050 BKN100 TX20/2709Z TNM01/2701Z
Forecast period: 1200 UTC 26 October 2020 to 0400 UTC 27 October 2020
Forecast type: FROM: standard forecast or significant change
Winds: from the SSE (160 degrees) at 7 MPH (6 knots; 3.1 m/s)
gusting to 18 MPH (16 knots; 8.2 m/s)
Visibility: 1.93 miles (3.11 km)
Ceiling: 10000 feet AGL
Clouds: scattered clouds at 5000 feet AGL
broken clouds at 10000 feet AGL
Weather: BR FU  (mist, smoke)
Text: TEMPO 2612/2620 22003MPS 1500 FU
Forecast period: 1200 to 2000 UTC 26 October 2020
Forecast type: TEMPORARY: The following changes expected for less than half the time period
Winds: from the SW (220 degrees) at 7 MPH (6 knots; 3.1 m/s)
Visibility: 0.93 miles (1.50 km)
Ceiling: unknown
Clouds: missing
Weather: FU  (smoke)
Text: BECMG 2704/2705 02003G08MPS 9999 NSW
Forecast period: 0400 to 1200 UTC 27 October 2020
Forecast type: BECOMING: Conditions expected to become as follows by 0500 UTC 27 October 2020
Winds: from the NNE (20 degrees) at 7 MPH (6 knots; 3.1 m/s)
gusting to 18 MPH (16 knots; 8.2 m/s)
Visibility: 6 or more miles (10+ km)
Ceiling: 10000 feet AGL
Clouds: scattered clouds at 5000 feet AGL
broken clouds at 10000 feet AGL
Weather: NSW  (no significant weather)